createdAt,value
2023-03-23T16:00:14.244Z,34.22
2023-03-23T16:02:44.564Z,32.88
2023-03-23T16:05:15.266Z,32.50
2023-03-23T16:07:47.411Z,34.42
2023-03-23T16:10:20.091Z,35.25
2023-03-23T16:12:49.235Z,34.90
2023-03-23T16:15:18.588Z,34.03
2023-03-23T16:17:48.763Z,34.45
2023-03-23T16:20:20.714Z,33.63
2023-03-23T16:22:50.580Z,35.10
2023-03-23T16:25:20.232Z,33.72
2023-03-23T16:27:52.783Z,33.47
2023-03-23T16:32:54.888Z,31.98
2023-03-23T16:35:25.811Z,32.90
2023-03-23T16:38:08.277Z,33.55
2023-03-23T16:43:09.036Z,30.77
2023-03-23T16:45:43.735Z,30.27
2023-03-23T16:48:14.647Z,30.05
2023-03-23T16:50:44.257Z,29.25
2023-03-23T16:53:13.158Z,27.65
2023-03-23T16:55:43.020Z,29.65
2023-03-23T16:58:16.866Z,29.63
2023-03-23T17:03:43.887Z,27.85
2023-03-23T17:08:41.191Z,28.17
2023-03-23T17:11:11.497Z,27.77
2023-03-23T17:13:40.552Z,26.67
2023-03-23T17:16:09.917Z,28.00
2023-03-23T17:18:38.708Z,27.13
2023-03-23T17:21:07.874Z,26.65
2023-03-23T17:23:36.781Z,27.05
2023-03-23T17:26:05.625Z,27.17
2023-03-23T17:28:34.458Z,25.90
2023-03-23T17:31:03.243Z,25.65
2023-03-23T17:33:32.021Z,26.50
2023-03-23T17:36:00.790Z,26.13
2023-03-23T17:38:29.544Z,26.08
2023-03-23T17:41:00.611Z,26.55
2023-03-23T17:43:29.632Z,26.83
2023-03-23T17:45:58.461Z,27.05
2023-03-23T17:48:27.880Z,26.77
2023-03-23T17:50:59.968Z,27.63
2023-03-23T17:53:29.185Z,27.80
2023-03-23T18:03:30.908Z,29.33
2023-03-23T18:06:01.896Z,28.23
2023-03-23T18:08:31.202Z,29.23
2023-03-23T18:11:00.362Z,25.92
2023-03-23T18:13:31.095Z,27.67
2023-03-23T18:16:00.149Z,28.40
2023-03-23T18:18:29.047Z,27.48
2023-03-23T18:21:03.991Z,28.65
2023-03-23T18:23:43.093Z,29.52
2023-03-23T18:26:18.721Z,28.95
2023-03-23T18:28:47.472Z,28.70
2023-03-23T18:31:18.426Z,29.13
2023-03-23T18:33:50.364Z,28.67
2023-03-23T18:36:21.881Z,27.85
2023-03-23T18:38:51.834Z,28.75
2023-03-23T18:41:20.852Z,30.23
2023-03-23T18:43:49.654Z,29.85
2023-03-23T18:46:18.530Z,29.08
2023-03-23T18:48:47.351Z,28.52
2023-03-23T18:51:16.415Z,28.27
2023-03-23T18:53:45.210Z,28.70
2023-03-23T18:56:16.977Z,30.50
2023-03-23T18:58:46.727Z,29.67
2023-03-23T19:01:18.071Z,29.13
2023-03-23T19:03:47.385Z,28.58
2023-03-23T19:06:19.890Z,28.23
2023-03-23T19:08:49.827Z,26.95
2023-03-23T19:11:19.805Z,27.33
2023-03-23T19:14:00.615Z,26.95
2023-03-23T19:16:32.787Z,26.33
2023-03-23T19:19:03.538Z,27.65
2023-03-23T19:21:33.187Z,27.95
2023-03-23T19:24:02.892Z,26.88
2023-03-23T19:26:37.623Z,28.15
2023-03-23T19:29:26.255Z,27.02
2023-03-23T19:31:57.537Z,26.70
2023-03-23T19:34:29.087Z,28.02
2023-03-23T19:37:05.291Z,25.83
2023-03-23T19:39:36.670Z,25.58
2023-03-23T19:42:05.834Z,25.48
2023-03-23T19:44:35.658Z,25.55
2023-03-23T19:47:04.762Z,27.50
2023-03-23T19:49:33.581Z,27.52
2023-03-23T19:52:06.419Z,26.60
2023-03-23T19:54:39.827Z,27.85
2023-03-23T19:57:10.920Z,28.02
2023-03-23T19:59:40.264Z,28.15
2023-03-23T20:02:09.048Z,29.70
2023-03-23T20:04:37.914Z,28.70
2023-03-23T20:07:07.879Z,29.05
2023-03-23T20:09:38.359Z,29.58
2023-03-23T20:12:07.342Z,28.95
2023-03-23T20:14:37.496Z,29.95
2023-03-23T20:17:10.165Z,30.30
2023-03-23T20:19:40.239Z,30.52
2023-03-23T20:22:09.245Z,29.70
2023-03-23T20:24:38.355Z,30.83
2023-03-23T20:27:07.332Z,30.80
2023-03-23T20:29:36.094Z,30.92
2023-03-23T20:32:04.864Z,31.70
2023-03-23T20:34:33.678Z,32.28
2023-03-23T20:37:03.583Z,30.73
2023-03-23T20:39:34.232Z,32.08
2023-03-23T20:42:06.659Z,32.15
2023-03-23T20:44:36.429Z,32.70
2023-03-23T20:47:05.975Z,33.28
2023-03-23T20:49:38.096Z,32.50
2023-03-23T20:52:09.881Z,35.17
2023-03-23T20:54:38.949Z,32.10
2023-03-23T20:57:09.156Z,32.47
2023-03-23T20:59:38.007Z,32.50
2023-03-23T21:02:07.189Z,31.85
2023-03-23T21:04:38.254Z,32.45
2023-03-23T21:07:07.282Z,31.80
2023-03-23T21:09:38.963Z,32.60
2023-03-23T21:12:10.395Z,31.55
2023-03-23T21:14:41.081Z,31.38
2023-03-23T21:17:10.129Z,30.38
2023-03-23T21:19:39.152Z,30.60
2023-03-23T21:22:07.959Z,30.10
2023-03-23T21:24:39.524Z,31.25
2023-03-23T21:27:08.727Z,30.55
2023-03-23T21:29:37.574Z,32.80
2023-03-23T21:32:08.650Z,31.30
2023-03-23T21:34:38.702Z,32.60
2023-03-23T21:37:08.077Z,31.30
2023-03-23T21:39:36.922Z,33.88
2023-03-23T21:42:07.677Z,33.13
2023-03-23T21:44:36.908Z,32.53
2023-03-23T21:47:05.870Z,32.63
2023-03-23T21:49:34.565Z,32.55
2023-03-23T21:52:10.132Z,32.15
2023-03-23T21:54:38.854Z,31.10
2023-03-23T21:57:07.858Z,31.88
2023-03-23T21:59:39.585Z,30.45
2023-03-23T22:02:12.625Z,30.73
2023-03-23T22:10:15.462Z,29.33
2023-03-23T22:12:44.337Z,30.05
2023-03-23T22:15:16.139Z,29.05
2023-03-23T22:17:45.228Z,29.30
2023-03-23T22:20:15.155Z,31.05
2023-03-23T22:22:43.899Z,30.92
2023-03-23T22:25:12.731Z,31.60
2023-03-23T22:33:15.903Z,29.63
2023-03-23T22:35:46.095Z,31.25
2023-03-23T22:38:16.572Z,30.80
2023-03-23T22:40:45.656Z,30.33
2023-03-23T22:43:14.610Z,31.45
2023-03-23T22:45:43.372Z,31.63
2023-03-23T22:48:12.195Z,29.58
2023-03-23T22:50:41.589Z,31.27
2023-03-23T22:53:10.341Z,30.38
2023-03-23T22:55:43.912Z,32.55
2023-03-23T22:58:13.109Z,30.33
2023-03-23T23:00:45.404Z,30.88
2023-03-23T23:03:14.553Z,30.95
2023-03-23T23:06:19.658Z,31.65
2023-03-23T23:12:03.182Z,35.65
2023-03-23T23:14:31.972Z,31.83
2023-03-23T23:17:00.771Z,32.83
2023-03-23T23:19:29.563Z,33.65
2023-03-23T23:22:06.423Z,33.42
2023-03-23T23:27:27.426Z,33.53
2023-03-23T23:29:56.182Z,33.92
2023-03-23T23:32:25.715Z,35.50
2023-03-23T23:34:54.495Z,34.63
2023-03-23T23:37:23.221Z,37.28
2023-03-23T23:39:52.645Z,38.20
2023-03-23T23:42:21.514Z,50.42
2023-03-23T23:44:50.365Z,41.83
2023-03-23T23:47:19.381Z,40.30
2023-03-23T23:49:51.387Z,41.92
2023-03-23T23:52:20.215Z,39.60
2023-03-23T23:54:49.194Z,38.88
2023-03-23T23:57:17.982Z,35.60
2023-03-23T23:59:46.944Z,31.75
